createdAt,value
2018-11-05T00:02:09.822Z,5.90
2018-11-05T00:04:38.163Z,5.90
2018-11-05T00:07:05.713Z,5.90
2018-11-05T00:09:33.296Z,5.90
2018-11-05T00:12:00.846Z,6.00
2018-11-05T00:14:28.414Z,6.00
2018-11-05T00:16:55.962Z,6.00
2018-11-05T00:19:23.542Z,6.10
2018-11-05T00:21:52.810Z,6.00
2018-11-05T00:24:20.382Z,6.00
2018-11-05T00:26:47.926Z,6.00
2018-11-05T00:29:15.506Z,6.00
2018-11-05T00:31:43.811Z,6.00
2018-11-05T00:34:11.352Z,6.00
2018-11-05T00:36:38.918Z,6.00
2018-11-05T00:39:06.462Z,6.00
2018-11-05T00:41:34.039Z,5.90
2018-11-05T00:44:01.578Z,5.90
2018-11-05T00:46:29.158Z,5.90
2018-11-05T00:48:56.689Z,5.90
2018-11-05T00:51:25.033Z,5.80
2018-11-05T00:53:52.569Z,5.80
2018-11-05T00:56:21.240Z,5.80
2018-11-05T00:58:49.819Z,5.80
2018-11-05T01:01:17.399Z,5.80
2018-11-05T01:03:45.892Z,5.80
2018-11-05T01:06:13.474Z,5.80
2018-11-05T01:08:41.788Z,5.80
2018-11-05T01:11:09.369Z,5.80
2018-11-05T01:13:36.921Z,5.80
2018-11-05T01:16:04.547Z,5.80
2018-11-05T01:18:32.088Z,5.70
2018-11-05T01:20:59.629Z,5.80
2018-11-05T01:23:27.199Z,5.70
2018-11-05T01:25:55.539Z,5.70
2018-11-05T01:28:24.082Z,5.60
2018-11-05T01:30:51.634Z,5.70
2018-11-05T01:33:19.211Z,5.70
2018-11-05T01:35:46.828Z,5.80
2018-11-05T01:38:14.419Z,5.80
2018-11-05T01:40:41.963Z,5.80
2018-11-05T01:43:09.549Z,5.90
2018-11-05T01:45:37.122Z,5.80
2018-11-05T01:48:04.708Z,5.80
2018-11-05T01:50:32.254Z,5.80
2018-11-05T01:52:59.838Z,5.80
2018-11-05T01:55:29.326Z,5.70
2018-11-05T01:57:57.678Z,5.70
2018-11-05T02:00:25.230Z,5.70
2018-11-05T02:02:52.803Z,5.80
2018-11-05T02:05:20.341Z,5.80
2018-11-05T02:07:47.874Z,5.70
2018-11-05T02:10:15.466Z,5.70
2018-11-05T02:12:43.957Z,5.60
2018-11-05T02:15:11.521Z,5.50
2018-11-05T02:17:39.060Z,5.50
2018-11-05T02:20:07.393Z,5.50
2018-11-05T02:22:34.933Z,5.50
2018-11-05T02:25:02.474Z,5.50
2018-11-05T02:27:30.813Z,5.50
2018-11-05T02:29:58.352Z,5.50
2018-11-05T02:32:25.921Z,5.40
2018-11-05T02:34:53.455Z,5.40
2018-11-05T02:37:21.021Z,5.50
2018-11-05T02:39:48.568Z,5.50
2018-11-05T02:42:16.138Z,5.50
2018-11-05T02:44:43.673Z,5.50
2018-11-05T02:47:11.238Z,5.50
2018-11-05T02:49:38.796Z,5.50
2018-11-05T02:52:06.362Z,5.60
2018-11-05T02:54:33.893Z,5.60
2018-11-05T02:57:02.449Z,5.60
2018-11-05T02:59:29.986Z,5.60
2018-11-05T03:01:57.558Z,5.60
2018-11-05T03:04:25.093Z,5.60
2018-11-05T03:06:52.661Z,5.60
2018-11-05T03:09:21.164Z,5.60
2018-11-05T03:11:48.725Z,5.60
2018-11-05T03:14:17.022Z,5.50
2018-11-05T03:16:44.599Z,5.50
2018-11-05T03:19:12.229Z,5.50
2018-11-05T03:21:39.797Z,5.40
2018-11-05T03:24:08.309Z,5.40
2018-11-05T03:26:35.873Z,5.50
2018-11-05T03:29:03.414Z,5.50
2018-11-05T03:31:30.987Z,5.50
2018-11-05T03:33:58.528Z,5.50
2018-11-05T03:36:26.099Z,5.50
2018-11-05T03:38:53.637Z,5.60
2018-11-05T03:41:23.142Z,5.50
2018-11-05T03:43:50.778Z,5.50
2018-11-05T03:46:18.350Z,5.50
2018-11-05T03:48:45.998Z,5.60
2018-11-05T03:51:13.577Z,5.60
2018-11-05T03:53:41.114Z,5.60
2018-11-05T03:56:08.796Z,5.60
2018-11-05T03:58:36.296Z,5.60
2018-11-05T04:01:03.832Z,5.70
2018-11-05T04:03:32.315Z,5.80
2018-11-05T04:05:59.738Z,5.80
2018-11-05T04:08:27.301Z,5.80
2018-11-05T04:10:54.833Z,5.80
2018-11-05T04:13:22.402Z,5.80
2018-11-05T04:15:49.972Z,5.80
2018-11-05T04:18:17.538Z,5.80
2018-11-05T04:20:45.074Z,5.70
2018-11-05T04:23:12.639Z,5.80
2018-11-05T04:25:40.169Z,5.90
2018-11-05T04:28:07.747Z,6.00
2018-11-05T04:30:35.277Z,6.00
2018-11-05T04:33:04.866Z,6.10
2018-11-05T04:35:32.409Z,6.10
2018-11-05T04:37:59.977Z,6.20
2018-11-05T04:40:27.513Z,6.30
2018-11-05T04:42:55.089Z,6.20
2018-11-05T04:45:23.641Z,6.30
2018-11-05T04:47:51.222Z,6.40
2018-11-05T04:50:18.756Z,6.50
2018-11-05T04:52:46.325Z,6.60
2018-11-05T04:55:13.858Z,6.60
2018-11-05T04:57:41.430Z,6.60
2018-11-05T05:00:08.970Z,6.70
2018-11-05T05:02:36.552Z,6.70
2018-11-05T05:05:04.083Z,6.80
2018-11-05T05:07:31.651Z,6.80
2018-11-05T05:09:59.187Z,6.80
2018-11-05T05:12:26.750Z,6.90
2018-11-05T05:14:54.286Z,6.90
2018-11-05T05:17:22.850Z,6.90
2018-11-05T05:19:51.954Z,6.90
2018-11-05T05:22:19.564Z,6.90
2018-11-05T05:24:47.100Z,6.90
2018-11-05T05:27:14.669Z,7.00
2018-11-05T05:29:43.157Z,7.10
2018-11-05T05:32:11.690Z,7.10
2018-11-05T05:34:39.230Z,7.20
2018-11-05T05:37:07.566Z,7.20
2018-11-05T05:39:36.069Z,7.20
2018-11-05T05:42:03.636Z,7.30
2018-11-05T05:44:31.170Z,7.10
2018-11-05T05:46:58.733Z,7.20
2018-11-05T05:49:26.267Z,7.30
2018-11-05T05:51:53.830Z,7.30
2018-11-05T05:54:22.342Z,7.30
2018-11-05T05:56:50.874Z,7.40
2018-11-05T05:59:18.414Z,7.40
2018-11-05T06:01:45.973Z,7.30
2018-11-05T06:04:13.511Z,7.30
2018-11-05T06:06:41.118Z,7.30
2018-11-05T06:09:08.644Z,7.30
2018-11-05T06:11:36.209Z,7.30
2018-11-05T06:14:03.744Z,7.30
2018-11-05T06:16:32.079Z,7.30
2018-11-05T06:19:00.573Z,7.30
2018-11-05T06:21:28.143Z,7.30
2018-11-05T06:23:55.678Z,7.40
2018-11-05T06:26:23.255Z,7.40
2018-11-05T06:28:50.806Z,7.30
2018-11-05T06:31:18.382Z,7.20
2018-11-05T06:33:46.686Z,7.20
2018-11-05T06:36:14.266Z,7.10
2018-11-05T06:38:41.802Z,7.10
2018-11-05T06:41:09.384Z,7.20
2018-11-05T06:43:36.933Z,7.10
2018-11-05T06:46:04.501Z,7.00
2018-11-05T06:48:32.033Z,7.10
2018-11-05T06:50:59.605Z,7.10
2018-11-05T06:53:27.142Z,7.20
2018-11-05T06:55:54.707Z,7.20
2018-11-05T06:58:22.237Z,7.20
2018-11-05T07:00:50.585Z,7.30
2018-11-05T07:03:18.121Z,7.30
2018-11-05T07:05:45.782Z,7.30
2018-11-05T07:08:14.222Z,7.30
2018-11-05T07:10:41.802Z,7.20
2018-11-05T07:13:09.338Z,7.20
2018-11-05T07:15:36.915Z,7.30
2018-11-05T07:18:04.466Z,7.10
2018-11-05T07:20:32.042Z,7.20
2018-11-05T07:22:59.577Z,7.10
2018-11-05T07:25:27.149Z,7.20
2018-11-05T07:27:54.686Z,7.20
2018-11-05T07:30:22.258Z,7.20
2018-11-05T07:32:49.797Z,7.40
2018-11-05T07:35:17.390Z,7.50
2018-11-05T07:37:44.936Z,7.50
2018-11-05T07:40:12.502Z,7.40
2018-11-05T07:42:40.044Z,7.50
2018-11-05T07:45:07.638Z,7.50
2018-11-05T07:47:35.169Z,7.60
2018-11-05T07:50:02.763Z,7.60
2018-11-05T07:52:30.285Z,7.70
2018-11-05T07:54:57.830Z,7.70
2018-11-05T07:57:25.401Z,7.70
2018-11-05T07:59:52.942Z,7.60
2018-11-05T08:02:20.513Z,7.40
2018-11-05T08:04:48.045Z,7.70
2018-11-05T08:07:15.613Z,7.80
2018-11-05T08:09:43.149Z,7.80
2018-11-05T08:12:12.712Z,8.00
2018-11-05T08:14:40.297Z,8.10
2018-11-05T08:17:08.319Z,8.10
2018-11-05T08:19:36.178Z,8.10
2018-11-05T08:22:03.720Z,8.00
2018-11-05T08:24:31.295Z,8.00
2018-11-05T08:26:58.825Z,8.10
2018-11-05T08:29:26.397Z,8.10
2018-11-05T08:31:53.938Z,8.20
2018-11-05T08:34:22.351Z,8.20
2018-11-05T08:36:49.863Z,8.20
2018-11-05T08:39:17.393Z,8.00
2018-11-05T08:41:44.957Z,7.90
2018-11-05T08:44:12.505Z,7.80
2018-11-05T08:46:40.141Z,7.90
2018-11-05T08:49:07.663Z,7.80
2018-11-05T08:51:35.599Z,7.70
2018-11-05T08:54:02.856Z,7.70
2018-11-05T08:56:30.397Z,7.80
2018-11-05T08:58:57.930Z,7.90
2018-11-05T09:01:25.513Z,8.00
2018-11-05T09:03:53.062Z,7.90
2018-11-05T09:06:20.665Z,8.00
2018-11-05T09:08:48.208Z,7.90
2018-11-05T09:11:16.248Z,8.00
2018-11-05T09:13:43.357Z,8.20
2018-11-05T09:16:10.962Z,8.10
2018-11-05T09:18:38.498Z,8.20
2018-11-05T09:21:08.036Z,8.40
2018-11-05T09:23:36.538Z,8.50
2018-11-05T09:26:04.105Z,8.70
2018-11-05T09:28:31.636Z,8.70
2018-11-05T09:30:59.215Z,8.80
2018-11-05T09:33:26.743Z,9.00
2018-11-05T09:35:54.306Z,9.10
2018-11-05T09:38:21.858Z,9.20
2018-11-05T09:40:50.197Z,9.20
2018-11-05T09:43:17.749Z,9.20
2018-11-05T09:45:45.339Z,9.00
2018-11-05T09:48:12.875Z,8.80
2018-11-05T09:50:40.490Z,8.80
2018-11-05T09:53:08.034Z,8.90
2018-11-05T09:55:35.677Z,9.00
2018-11-05T09:58:03.226Z,9.10
2018-11-05T10:00:30.766Z,9.00
2018-11-05T10:02:58.408Z,9.00
2018-11-05T10:05:26.703Z,9.40
2018-11-05T10:07:54.279Z,9.30
2018-11-05T10:10:21.900Z,9.40
2018-11-05T10:12:49.426Z,9.50
2018-11-05T10:15:16.993Z,9.50
2018-11-05T10:17:44.525Z,9.50
2018-11-05T10:20:12.093Z,9.60
2018-11-05T10:22:39.627Z,9.60
2018-11-05T10:25:07.301Z,9.70
2018-11-05T10:27:34.770Z,9.70
2018-11-05T10:30:02.339Z,9.80
2018-11-05T10:32:29.876Z,9.80
2018-11-05T10:34:59.417Z,9.90
2018-11-05T10:37:26.965Z,10.10
2018-11-05T10:39:54.597Z,10.30
2018-11-05T10:42:22.122Z,10.40
2018-11-05T10:44:50.466Z,10.50
2018-11-05T10:47:18.985Z,10.50
2018-11-05T10:49:46.561Z,10.70
2018-11-05T10:52:22.632Z,10.80
2018-11-05T10:54:51.048Z,10.80
2018-11-05T10:57:18.582Z,10.70
2018-11-05T10:59:46.157Z,10.90
2018-11-05T11:02:13.706Z,10.90
2018-11-05T11:04:41.292Z,11.00
2018-11-05T11:07:08.836Z,11.20
2018-11-05T11:09:36.480Z,11.30
2018-11-05T11:12:04.756Z,11.60
2018-11-05T11:14:32.299Z,11.60
2018-11-05T11:16:59.870Z,11.80
2018-11-05T11:19:28.373Z,12.00
2018-11-05T11:21:55.970Z,12.10
2018-11-05T11:24:23.550Z,12.10
2018-11-05T11:26:51.102Z,12.00
2018-11-05T11:29:18.787Z,12.10
2018-11-05T11:31:46.274Z,11.90
2018-11-05T11:34:14.621Z,12.20
2018-11-05T11:36:42.469Z,12.20
2018-11-05T11:39:09.938Z,12.10
2018-11-05T11:41:37.515Z,12.10
2018-11-05T11:44:05.157Z,12.30
2018-11-05T11:46:33.619Z,12.20
2018-11-05T11:49:01.195Z,12.40
2018-11-05T11:51:28.784Z,12.40
2018-11-05T11:53:56.361Z,12.70
2018-11-05T11:56:23.902Z,12.80
2018-11-05T11:58:54.193Z,12.90
2018-11-05T12:01:21.746Z,12.90
2018-11-05T12:03:49.318Z,13.10
2018-11-05T12:06:16.858Z,13.00
2018-11-05T12:08:44.429Z,12.80
2018-11-05T12:11:11.977Z,12.80
2018-11-05T12:13:39.550Z,12.90
2018-11-05T12:16:07.088Z,12.80
2018-11-05T12:18:34.666Z,12.90
2018-11-05T12:21:02.211Z,13.30
2018-11-05T12:23:29.808Z,13.50
2018-11-05T12:25:58.318Z,13.40
2018-11-05T12:28:25.890Z,13.40
2018-11-05T12:30:53.430Z,13.80
2018-11-05T12:33:21.001Z,14.10
2018-11-05T12:35:49.519Z,14.10
2018-11-05T12:38:17.865Z,13.70
2018-11-05T12:40:46.630Z,13.70
2018-11-05T12:43:14.237Z,13.60
2018-11-05T12:45:41.775Z,13.80
2018-11-05T12:48:11.283Z,13.60
2018-11-05T12:50:38.864Z,13.70
2018-11-05T12:53:06.427Z,13.60
2018-11-05T12:55:33.983Z,13.80
2018-11-05T12:58:01.566Z,14.00
2018-11-05T13:00:29.116Z,14.30
2018-11-05T13:02:57.635Z,14.20
2018-11-05T13:05:25.207Z,14.50
2018-11-05T13:07:53.723Z,14.60
2018-11-05T13:10:21.318Z,14.60
2018-11-05T13:12:48.891Z,14.60
2018-11-05T13:15:16.515Z,14.70
2018-11-05T13:17:44.037Z,14.70
2018-11-05T13:20:12.380Z,14.20
2018-11-05T13:22:39.983Z,14.20
2018-11-05T13:25:07.522Z,14.20
2018-11-05T13:27:35.097Z,14.00
2018-11-05T13:30:04.854Z,14.30
2018-11-05T13:32:32.391Z,14.20
2018-11-05T13:34:59.937Z,14.30
2018-11-05T13:37:27.806Z,14.50
2018-11-05T13:39:56.092Z,14.60
2018-11-05T13:42:25.625Z,14.70
2018-11-05T13:44:53.194Z,14.80
2018-11-05T13:47:22.334Z,14.60
2018-11-05T13:49:49.232Z,14.60
2018-11-05T13:52:17.757Z,14.50
2018-11-05T13:54:45.405Z,14.30
2018-11-05T13:57:12.819Z,14.50
2018-11-05T13:59:40.363Z,14.70
2018-11-05T14:02:08.008Z,14.60
2018-11-05T14:04:35.623Z,14.60
2018-11-05T14:07:03.169Z,14.80
2018-11-05T14:09:30.710Z,14.60
2018-11-05T14:11:58.294Z,14.30
2018-11-05T14:14:25.853Z,13.90
2018-11-05T14:16:53.421Z,14.10
2018-11-05T14:19:20.962Z,14.00
2018-11-05T14:21:48.546Z,14.00
2018-11-05T14:24:16.167Z,14.00
2018-11-05T14:26:43.749Z,14.10
2018-11-05T14:29:11.647Z,14.30
2018-11-05T14:31:38.934Z,14.40
2018-11-05T14:34:06.506Z,14.20
2018-11-05T14:36:34.888Z,13.50
2018-11-05T14:39:02.498Z,13.50
2018-11-05T14:41:31.066Z,13.30
2018-11-05T14:43:58.727Z,13.00
2018-11-05T14:46:26.284Z,12.80
2018-11-05T14:48:53.858Z,12.90
2018-11-05T14:51:21.433Z,12.80
2018-11-05T14:53:49.037Z,12.70
2018-11-05T14:56:24.812Z,12.40
2018-11-05T14:58:54.335Z,12.10
2018-11-05T15:01:21.873Z,12.10
2018-11-05T15:03:49.446Z,12.00
2018-11-05T15:06:16.982Z,12.00
2018-11-05T15:08:44.552Z,11.80
2018-11-05T15:11:12.112Z,11.70
2018-11-05T15:13:39.694Z,11.70
2018-11-05T15:16:07.272Z,11.70
2018-11-05T15:18:35.014Z,11.80
2018-11-05T15:21:02.500Z,11.70
2018-11-05T15:23:30.008Z,11.80
2018-11-05T15:25:58.383Z,11.70
2018-11-05T15:28:25.917Z,11.70
2018-11-05T15:30:53.503Z,11.70
2018-11-05T15:33:23.044Z,11.60
2018-11-05T15:35:51.354Z,11.40
2018-11-05T15:38:20.889Z,11.40
2018-11-05T15:40:48.459Z,11.40
2018-11-05T15:43:19.563Z,11.30
2018-11-05T15:45:47.143Z,11.20
2018-11-05T15:48:14.719Z,11.10
2018-11-05T15:50:44.226Z,11.10
2018-11-05T15:53:12.095Z,11.00
2018-11-05T15:55:39.374Z,10.90
2018-11-05T15:58:06.970Z,10.80
2018-11-05T16:00:34.549Z,10.70
2018-11-05T16:03:02.124Z,10.60
2018-11-05T16:05:29.673Z,10.50
2018-11-05T16:07:57.272Z,10.50
2018-11-05T16:10:24.941Z,10.40
2018-11-05T16:12:52.545Z,10.30
2018-11-05T16:15:20.090Z,10.20
2018-11-05T16:17:47.641Z,10.10
2018-11-05T16:20:15.225Z,10.00
2018-11-05T16:22:42.768Z,9.90
2018-11-05T16:25:10.342Z,9.80
2018-11-05T16:27:38.637Z,9.70
2018-11-05T16:30:06.217Z,9.70
2018-11-05T16:32:33.779Z,9.70
2018-11-05T16:35:01.483Z,9.70
2018-11-05T16:37:28.922Z,9.60
2018-11-05T16:39:56.549Z,9.60
2018-11-05T16:42:24.109Z,9.50
2018-11-05T16:44:51.687Z,9.40
2018-11-05T16:47:19.264Z,9.30
2018-11-05T16:49:46.841Z,9.30
2018-11-05T16:52:15.004Z,9.20
2018-11-05T16:54:43.403Z,9.10
2018-11-05T16:57:10.974Z,9.10
2018-11-05T16:59:38.526Z,9.10
2018-11-05T17:02:06.541Z,9.10
2018-11-05T17:04:33.672Z,9.00
2018-11-05T17:07:01.299Z,8.90
2018-11-05T17:09:28.834Z,8.80
2018-11-05T17:11:58.354Z,8.80
2018-11-05T17:14:26.968Z,8.80
2018-11-05T17:16:54.510Z,8.70
2018-11-05T17:19:22.081Z,8.70
2018-11-05T17:21:49.618Z,8.70
2018-11-05T17:24:17.185Z,8.70
2018-11-05T17:26:44.730Z,8.70
2018-11-05T17:29:12.298Z,8.70
2018-11-05T17:31:39.829Z,8.60
2018-11-05T17:34:07.390Z,8.50
2018-11-05T17:36:34.938Z,8.50
2018-11-05T17:39:02.515Z,8.50
2018-11-05T17:41:31.011Z,8.40
2018-11-05T17:43:58.537Z,8.30
2018-11-05T17:46:26.102Z,8.30
2018-11-05T17:48:53.643Z,8.30
2018-11-05T17:51:21.980Z,8.20
2018-11-05T17:53:49.550Z,8.20
2018-11-05T17:56:17.162Z,8.20
2018-11-05T17:58:44.712Z,8.10
2018-11-05T18:01:12.278Z,8.10
2018-11-05T18:03:40.281Z,8.10
2018-11-05T18:06:07.794Z,8.10
2018-11-05T18:08:35.364Z,8.10
2018-11-05T18:11:03.147Z,8.00
2018-11-05T18:13:30.716Z,8.00
2018-11-05T18:15:58.264Z,8.00
2018-11-05T18:18:25.839Z,8.00
2018-11-05T18:20:53.410Z,7.90
2018-11-05T18:23:20.978Z,7.90
2018-11-05T18:25:48.542Z,7.80
2018-11-05T18:28:17.075Z,7.70
2018-11-05T18:30:44.682Z,7.70
2018-11-05T18:33:14.251Z,7.70
2018-11-05T18:35:41.794Z,7.60
2018-11-05T18:38:09.444Z,7.60
2018-11-05T18:40:36.950Z,7.60
2018-11-05T18:43:05.394Z,7.50
2018-11-05T18:45:32.945Z,7.50
2018-11-05T18:48:00.433Z,7.40
2018-11-05T18:50:27.988Z,7.40
2018-11-05T18:52:56.413Z,7.30
2018-11-05T18:55:23.955Z,7.30
2018-11-05T18:57:51.525Z,7.30
2018-11-05T19:00:19.069Z,7.20
2018-11-05T19:02:46.711Z,7.20
2018-11-05T19:05:14.202Z,7.10
2018-11-05T19:07:41.781Z,7.00
2018-11-05T19:10:09.323Z,7.00
2018-11-05T19:12:38.442Z,6.90
2018-11-05T19:15:06.962Z,6.90
2018-11-05T19:17:34.506Z,6.90
2018-11-05T19:20:02.996Z,6.90
2018-11-05T19:22:30.602Z,6.90
2018-11-05T19:24:58.153Z,6.90
2018-11-05T19:27:25.694Z,6.90
2018-11-05T19:29:55.203Z,6.90
2018-11-05T19:32:22.746Z,6.90
2018-11-05T19:34:50.314Z,6.90
2018-11-05T19:37:18.810Z,6.90
2018-11-05T19:39:46.386Z,6.90
2018-11-05T19:42:14.028Z,6.90
2018-11-05T19:44:43.430Z,6.80
2018-11-05T19:47:10.970Z,6.70
2018-11-05T19:49:38.593Z,6.70
2018-11-05T19:52:06.106Z,6.70
2018-11-05T19:54:33.673Z,6.70
2018-11-05T19:57:01.208Z,6.50
2018-11-05T19:59:28.784Z,6.50
2018-11-05T20:01:56.334Z,6.40
2018-11-05T20:04:23.950Z,6.40
2018-11-05T20:06:52.218Z,6.40
2018-11-05T20:09:19.785Z,6.40
2018-11-05T20:11:47.315Z,6.40
2018-11-05T20:14:14.886Z,6.40
2018-11-05T20:16:42.456Z,6.40
2018-11-05T20:19:10.092Z,6.50
2018-11-05T20:21:38.534Z,6.50
2018-11-05T20:24:06.101Z,6.50
2018-11-05T20:26:33.637Z,6.50
2018-11-05T20:29:01.255Z,6.50
2018-11-05T20:31:29.879Z,6.40
2018-11-05T20:33:57.304Z,6.40
2018-11-05T20:36:24.673Z,6.40
2018-11-05T20:38:52.242Z,6.20
2018-11-05T20:41:19.785Z,6.20
2018-11-05T20:43:49.281Z,6.20
2018-11-05T20:46:16.839Z,6.30
2018-11-05T20:48:44.418Z,6.30
2018-11-05T20:51:11.950Z,6.30
2018-11-05T20:53:39.478Z,6.20
2018-11-05T20:56:07.823Z,6.20
2018-11-05T20:58:35.354Z,6.20
2018-11-05T21:01:04.949Z,6.20
2018-11-05T21:03:32.445Z,6.30
2018-11-05T21:05:59.981Z,6.40
2018-11-05T21:08:27.548Z,6.30
2018-11-05T21:10:55.113Z,6.30
2018-11-05T21:13:22.670Z,6.30
2018-11-05T21:15:50.199Z,6.20
2018-11-05T21:18:18.743Z,6.20
2018-11-05T21:20:46.321Z,6.20
2018-11-05T21:23:13.906Z,6.10
2018-11-05T21:25:41.444Z,6.10
2018-11-05T21:28:09.009Z,6.10
2018-11-05T21:30:36.581Z,6.10
2018-11-05T21:33:04.238Z,6.00
2018-11-05T21:35:31.738Z,6.00
2018-11-05T21:38:00.074Z,6.10
2018-11-05T21:40:27.650Z,6.10
2018-11-05T21:42:55.221Z,6.10
2018-11-05T21:45:22.774Z,6.10
2018-11-05T21:47:50.342Z,6.00
2018-11-05T21:50:19.863Z,6.00
2018-11-05T21:52:47.438Z,6.00
2018-11-05T21:55:15.955Z,6.00
2018-11-05T21:57:43.523Z,6.00
2018-11-05T22:00:11.057Z,6.00
2018-11-05T22:02:38.631Z,6.00
2018-11-05T22:05:06.174Z,6.00
2018-11-05T22:07:33.733Z,6.00
2018-11-05T22:10:01.270Z,6.00
2018-11-05T22:12:28.853Z,6.00
2018-11-05T22:14:56.386Z,5.90
2018-11-05T22:17:23.944Z,5.90
2018-11-05T22:19:51.470Z,5.90
2018-11-05T22:22:19.091Z,5.90
2018-11-05T22:24:46.601Z,5.90
2018-11-05T22:27:14.216Z,5.90
2018-11-05T22:29:41.722Z,5.90
2018-11-05T22:32:09.288Z,5.90
2018-11-05T22:34:37.138Z,6.00
2018-11-05T22:37:05.710Z,6.10
2018-11-05T22:39:33.253Z,6.10
2018-11-05T22:42:01.553Z,6.10
2018-11-05T22:44:29.118Z,6.10
2018-11-05T22:46:56.697Z,6.30
2018-11-05T22:49:26.972Z,6.30
2018-11-05T22:51:54.509Z,6.20
2018-11-05T22:54:22.839Z,6.10
2018-11-05T22:56:51.382Z,6.10
2018-11-05T22:59:20.087Z,6.00
2018-11-05T23:01:47.619Z,5.90
2018-11-05T23:04:15.473Z,5.90
2018-11-05T23:06:43.809Z,5.90
2018-11-05T23:09:11.373Z,5.80
2018-11-05T23:11:38.902Z,5.90
2018-11-05T23:14:07.443Z,5.90
2018-11-05T23:16:35.742Z,5.90
2018-11-05T23:19:03.298Z,5.90
2018-11-05T23:21:30.828Z,5.90
2018-11-05T23:23:58.385Z,5.80
2018-11-05T23:26:25.909Z,5.80
2018-11-05T23:28:53.469Z,5.80
2018-11-05T23:31:21.002Z,5.80
2018-11-05T23:33:48.572Z,5.80
2018-11-05T23:36:16.101Z,5.80
2018-11-05T23:38:43.635Z,5.90
2018-11-05T23:41:11.198Z,5.90
2018-11-05T23:43:38.730Z,5.90
2018-11-05T23:46:06.295Z,5.90
2018-11-05T23:48:33.817Z,5.80
2018-11-05T23:51:01.382Z,5.80
2018-11-05T23:53:28.909Z,5.70
2018-11-05T23:55:56.474Z,5.80
2018-11-05T23:58:24.004Z,5.80
